Time;durP1;ratioP1;P1;durP2;ratioP2;P2;SDS_P1;SDS_P2;PMS_P1;PMS_P2;Temp;Humidity;BMP_temperature;BMP_pressure;BME280_temperature;BME280_humidity;BME280_pressure;Samples;Min_cycle;Max_cycle;Signal;HPM_P1;HPM_P2
2023/05/09 00:04:24;;;;;;;16.98;13.38;;;18.70;73.40;;;;;;10366406;28;20553;-56
2023/05/09 00:09:25;;;;;;;16.42;12.48;;;18.70;73.40;;;;;;10365308;28;20040;-55
2023/05/09 00:14:26;;;;;;;15.55;11.93;;;18.70;73.50;;;;;;10348534;28;20022;-55
2023/05/09 00:19:26;;;;;;;20.30;13.30;;;18.70;73.40;;;;;;10365472;28;20444;-54
2023/05/09 00:24:27;;;;;;;17.67;12.75;;;18.70;73.40;;;;;;10353094;28;20032;-56
2023/05/09 00:29:28;;;;;;;15.88;11.68;;;18.70;73.40;;;;;;10364415;28;20026;-57
2023/05/09 00:34:28;;;;;;;17.83;13.23;;;18.70;73.40;;;;;;10384418;28;20110;-55
2023/05/09 00:39:29;;;;;;;17.02;13.40;;;18.70;73.40;;;;;;10365337;28;20034;-55
2023/05/09 00:44:30;;;;;;;16.42;13.57;;;18.70;73.40;;;;;;10364059;28;20109;-55
2023/05/09 00:49:31;;;;;;;17.08;12.88;;;18.60;73.40;;;;;;10363538;28;20025;-55
2023/05/09 00:54:32;;;;;;;16.77;12.95;;;18.60;73.30;;;;;;10338192;28;20129;-55
2023/05/09 00:59:33;;;;;;;17.38;12.98;;;18.60;73.30;;;;;;10362972;28;20057;-53
2023/05/09 01:04:34;;;;;;;17.42;12.95;;;18.70;73.30;;;;;;10366774;28;20435;-54
2023/05/09 01:10:00;;;;;;;16.88;13.00;;;18.60;73.30;;;;;;10364472;28;20026;-54
2023/05/09 01:15:30;;;;;;;17.95;13.02;;;18.70;73.30;;;;;;10363029;28;20029;-54
2023/05/09 01:20:50;;;;;;;18.00;13.90;;;18.60;73.20;;;;;;10362793;28;20495;-55
2023/05/09 01:26:03;;;;;;;17.92;12.95;;;18.70;73.30;;;;;;10349454;28;20030;-54
2023/05/09 01:31:07;;;;;;;15.50;12.57;;;18.60;73.30;;;;;;10370682;28;20392;-54
2023/05/09 01:36:15;;;;;;;17.63;13.35;;;18.60;73.20;;;;;;10365442;28;20018;-54
2023/05/09 01:41:18;;;;;;;16.88;12.50;;;18.60;73.20;;;;;;10362055;28;20030;-55
2023/05/09 01:46:20;;;;;;;17.00;13.45;;;18.60;73.30;;;;;;10333009;28;20019;-54
2023/05/09 01:51:23;;;;;;;17.65;12.82;;;18.60;73.30;;;;;;10368176;28;20034;-55
2023/05/09 01:56:24;;;;;;;17.98;13.48;;;18.60;73.30;;;;;;10371564;28;20417;-55
2023/05/09 02:01:26;;;;;;;19.13;13.90;;;18.60;73.30;;;;;;10370103;28;20149;-53
2023/05/09 02:06:28;;;;;;;17.92;13.10;;;18.60;73.30;;;;;;10370385;28;20710;-53
2023/05/09 02:11:29;;;;;;;17.15;12.23;;;18.60;73.30;;;;;;10369725;28;20061;-55
2023/05/09 02:16:30;;;;;;;17.35;13.45;;;18.60;73.30;;;;;;10371173;28;20109;-55
2023/05/09 02:21:31;;;;;;;18.35;14.00;;;18.60;73.20;;;;;;10369210;28;20045;-55
2023/05/09 02:26:33;;;;;;;18.83;14.32;;;18.60;73.80;;;;;;10357231;28;20022;-58
2023/05/09 02:31:34;;;;;;;20.83;14.15;;;18.60;73.30;;;;;;10354085;28;20159;-56
2023/05/09 02:36:36;;;;;;;18.90;13.40;;;18.60;73.30;;;;;;10369048;28;20022;-56
2023/05/09 02:41:37;;;;;;;17.20;12.50;;;18.60;73.20;;;;;;10368546;28;20026;-54
2023/05/09 02:46:37;;;;;;;17.60;13.43;;;18.60;73.20;;;;;;10368313;28;20010;-54
2023/05/09 02:51:38;;;;;;;19.17;14.27;;;18.60;73.20;;;;;;10351958;28;20060;-56
2023/05/09 02:56:39;;;;;;;18.13;12.82;;;18.60;73.20;;;;;;10369163;28;20125;-55
2023/05/09 03:01:39;;;;;;;18.23;13.85;;;18.60;73.20;;;;;;10367556;28;20661;-56
2023/05/09 03:06:40;;;;;;;20.55;15.98;;;18.60;73.20;;;;;;10369133;28;20119;-55
2023/05/09 03:11:41;;;;;;;20.35;14.75;;;18.50;73.10;;;;;;10367533;28;20109;-53
2023/05/09 03:16:41;;;;;;;19.55;14.43;;;18.50;73.10;;;;;;10367606;28;20105;-54
2023/05/09 03:21:43;;;;;;;19.50;14.15;;;18.50;73.10;;;;;;10367105;28;20050;-55
2023/05/09 03:26:44;;;;;;;22.13;15.52;;;18.50;73.10;;;;;;10358939;28;20593;-55
2023/05/09 03:31:45;;;;;;;19.95;15.10;;;18.50;73.10;;;;;;10366370;28;20113;-54
2023/05/09 03:36:45;;;;;;;22.67;15.55;;;18.50;73.10;;;;;;10366733;28;20018;-54
2023/05/09 03:41:46;;;;;;;19.15;14.45;;;18.50;73.10;;;;;;10359006;28;20030;-56
2023/05/09 03:46:47;;;;;;;21.27;14.45;;;18.50;73.50;;;;;;10351880;28;20042;-56
2023/05/09 03:51:47;;;;;;;21.65;13.77;;;18.60;73.30;;;;;;10362028;28;20024;-55
2023/05/09 03:56:48;;;;;;;23.83;18.33;;;18.60;73.10;;;;;;10350044;28;20021;-54
2023/05/09 04:01:49;;;;;;;26.70;18.38;;;18.70;74.30;;;;;;10362345;28;20061;-55
2023/05/09 04:06:50;;;;;;;23.25;17.95;;;18.70;74.30;;;;;;10346686;28;20038;-54
2023/05/09 04:11:50;;;;;;;25.27;17.92;;;18.70;74.00;;;;;;10347406;28;20018;-56
2023/05/09 04:16:51;;;;;;;22.95;17.85;;;18.70;73.60;;;;;;10360149;28;20054;-55
2023/05/09 04:21:52;;;;;;;23.65;17.67;;;18.60;73.10;;;;;;10353138;28;20116;-55
2023/05/09 04:26:53;;;;;;;21.30;17.48;;;18.60;73.10;;;;;;10368773;28;20038;-54
2023/05/09 04:31:53;;;;;;;20.58;16.30;;;18.60;73.10;;;;;;10376255;28;20029;-56
2023/05/09 04:36:54;;;;;;;19.02;15.40;;;18.60;73.20;;;;;;10355366;28;20062;-55
2023/05/09 04:41:55;;;;;;;21.10;16.85;;;18.50;73.10;;;;;;10364780;28;20038;-56
2023/05/09 04:46:56;;;;;;;20.70;16.60;;;18.50;73.10;;;;;;10363956;28;20025;-54
2023/05/09 04:51:57;;;;;;;24.65;17.85;;;18.50;73.10;;;;;;10364439;28;20018;-56
2023/05/09 04:56:58;;;;;;;24.05;17.48;;;18.50;73.10;;;;;;10346584;28;20117;-56
2023/05/09 05:01:58;;;;;;;21.42;17.13;;;18.60;73.20;;;;;;10364872;28;20026;-56
2023/05/09 05:06:59;;;;;;;22.77;16.90;;;18.50;73.20;;;;;;10363212;28;20034;-55
2023/05/09 05:12:00;;;;;;;24.58;16.90;;;18.50;73.20;;;;;;10346946;28;20036;-52
2023/05/09 05:17:01;;;;;;;29.27;26.23;;;18.60;73.70;;;;;;10363238;28;20461;-54
2023/05/09 05:22:01;;;;;;;28.60;22.85;;;18.70;75.40;;;;;;10363103;28;20034;-54
2023/05/09 05:27:02;;;;;;;28.83;20.80;;;19.00;73.90;;;;;;10361535;28;20014;-54
2023/05/09 05:32:03;;;;;;;27.63;20.92;;;19.00;74.00;;;;;;10374788;28;20075;-54
2023/05/09 05:37:04;;;;;;;30.67;22.17;;;19.00;74.00;;;;;;10362976;28;20503;-55
2023/05/09 05:42:05;;;;;;;34.30;21.85;;;19.00;74.30;;;;;;10357497;28;20034;-53
2023/05/09 05:47:05;;;;;;;31.83;20.23;;;19.00;74.40;;;;;;10363622;28;20153;-55
2023/05/09 05:52:06;;;;;;;32.25;20.23;;;18.90;74.10;;;;;;10363446;28;20018;-55
2023/05/09 05:57:07;;;;;;;26.40;20.05;;;18.90;74.10;;;;;;10343420;28;20116;-54
2023/05/09 06:02:07;;;;;;;36.67;21.35;;;18.90;74.50;;;;;;10361574;28;20069;-54
2023/05/09 06:07:09;;;;;;;32.85;18.75;;;18.80;74.40;;;;;;10362189;28;20085;-52
2023/05/09 06:12:10;;;;;;;30.90;18.42;;;18.80;74.40;;;;;;10359044;28;20022;-58
2023/05/09 06:17:11;;;;;;;23.73;18.40;;;18.80;74.50;;;;;;10360022;28;20112;-52
2023/05/09 06:22:12;;;;;;;24.98;16.88;;;18.70;74.70;;;;;;10355649;28;20542;-53
2023/05/09 06:27:12;;;;;;;21.40;16.63;;;18.70;74.60;;;;;;10356492;28;20029;-54
2023/05/09 06:32:13;;;;;;;20.60;16.20;;;18.70;74.30;;;;;;10361021;28;20014;-54
2023/05/09 06:37:14;;;;;;;18.38;15.00;;;18.80;74.10;;;;;;10366172;28;20022;-54
2023/05/09 06:42:15;;;;;;;20.55;14.52;;;18.80;74.00;;;;;;10370222;28;20034;-51
2023/05/09 06:47:16;;;;;;;23.17;16.10;;;18.70;73.90;;;;;;10328833;28;20111;-54
2023/05/09 06:52:16;;;;;;;16.50;14.38;;;18.70;73.80;;;;;;10360789;28;20083;-54
2023/05/09 06:57:17;;;;;;;17.90;13.52;;;18.70;73.80;;;;;;10363931;28;20034;-54
2023/05/09 07:02:18;;;;;;;17.58;14.05;;;18.70;73.70;;;;;;10366811;28;20049;-54
2023/05/09 07:07:19;;;;;;;19.42;14.60;;;18.70;73.70;;;;;;10368366;28;20132;-54
2023/05/09 07:12:19;;;;;;;17.48;12.32;;;18.70;73.70;;;;;;10368839;28;20772;-53
2023/05/09 07:17:20;;;;;;;14.73;12.63;;;18.70;73.70;;;;;;10351556;28;20021;-53
2023/05/09 07:22:21;;;;;;;14.07;11.38;;;18.70;73.60;;;;;;10382451;28;20030;-53
2023/05/09 07:27:21;;;;;;;16.58;12.63;;;18.70;73.60;;;;;;10366233;28;20026;-53
2023/05/09 07:32:22;;;;;;;14.60;12.63;;;18.70;73.50;;;;;;10347648;28;20108;-53
2023/05/09 07:37:23;;;;;;;16.48;12.68;;;18.70;73.40;;;;;;10366172;28;20102;-52
2023/05/09 07:42:23;;;;;;;13.32;11.25;;;18.70;73.40;;;;;;10363985;28;20064;-49
2023/05/09 07:47:24;;;;;;;13.30;11.40;;;18.70;73.30;;;;;;10356268;28;20038;-53
2023/05/09 07:52:25;;;;;;;14.57;10.65;;;18.70;73.30;;;;;;10366195;28;20026;-52
2023/05/09 07:57:26;;;;;;;13.43;10.38;;;18.70;73.30;;;;;;10364977;28;20525;-55
2023/05/09 08:02:26;;;;;;;11.43;10.23;;;18.70;73.30;;;;;;10365901;28;20037;-52
2023/05/09 08:07:27;;;;;;;12.35;9.88;;;18.70;73.30;;;;;;10365506;28;20571;-53
2023/05/09 08:12:28;;;;;;;14.40;10.80;;;18.70;73.40;;;;;;10347175;28;20549;-54
2023/05/09 08:17:28;;;;;;;14.27;9.50;;;18.70;73.40;;;;;;10363773;28;20101;-52
2023/05/09 08:22:29;;;;;;;13.20;10.27;;;18.70;73.40;;;;;;10365208;28;20112;-53
2023/05/09 08:27:29;;;;;;;11.43;9.55;;;18.70;73.50;;;;;;10341260;28;20109;-51
2023/05/09 08:32:30;;;;;;;13.52;10.15;;;18.70;73.40;;;;;;10374604;28;20335;-54
2023/05/09 08:37:31;;;;;;;12.65;10.45;;;18.70;73.50;;;;;;10343789;28;20113;-53
2023/05/09 08:42:35;;;;;;;11.77;9.52;;;18.70;73.50;;;;;;10345751;28;20542;-52
2023/05/09 08:47:37;;;;;;;13.85;10.52;;;18.60;73.40;;;;;;10343497;28;20022;-53
2023/05/09 08:52:38;;;;;;;12.30;10.65;;;18.70;73.50;;;;;;10359179;28;20029;-54
2023/05/09 08:57:39;;;;;;;11.32;9.32;;;18.60;73.20;;;;;;10360203;28;20139;-56
2023/05/09 09:02:41;;;;;;;11.38;8.88;;;18.60;73.20;;;;;;10361774;28;20578;-54
2023/05/09 09:07:43;;;;;;;11.00;8.77;;;18.60;73.20;;;;;;10363236;28;20037;-53
2023/05/09 09:12:44;;;;;;;11.15;8.73;;;18.60;73.20;;;;;;10361692;28;20428;-54
2023/05/09 09:17:49;;;;;;;10.05;8.77;;;18.60;73.20;;;;;;10361536;28;20014;-52
2023/05/09 09:22:54;;;;;;;10.27;8.65;;;18.60;73.10;;;;;;10354587;28;20029;-52
2023/05/09 09:27:55;;;;;;;10.43;8.95;;;18.60;73.10;;;;;;10373178;28;20203;-52
2023/05/09 09:32:58;;;;;;;10.05;8.48;;;18.60;73.10;;;;;;10389439;28;20376;-54
2023/05/09 09:37:58;;;;;;;9.52;8.38;;;18.60;73.10;;;;;;10360613;28;20535;-54
2023/05/09 09:42:59;;;;;;;10.40;8.45;;;18.60;73.00;;;;;;10360891;28;20026;-55
2023/05/09 09:48:06;;;;;;;9.68;7.57;;;18.60;73.00;;;;;;10361079;28;20034;-53
2023/05/09 09:53:06;;;;;;;9.02;7.40;;;18.60;73.00;;;;;;10361257;28;20572;-54
2023/05/09 09:58:17;;;;;;;10.02;7.47;;;18.60;72.90;;;;;;10371252;28;20076;-53
2023/05/09 10:03:17;;;;;;;9.00;7.55;;;18.70;72.90;;;;;;10357644;28;20088;-52
2023/05/09 10:08:18;;;;;;;8.48;7.57;;;18.70;73.90;;;;;;10362718;28;20620;-50
2023/05/09 10:13:19;;;;;;;8.65;7.47;;;18.70;74.10;;;;;;10369249;28;20040;-49
2023/05/09 10:18:26;;;;;;;10.10;8.30;;;18.80;74.10;;;;;;10370546;28;20018;-51
2023/05/09 10:23:30;;;;;;;7.47;6.47;;;18.70;73.60;;;;;;10369086;28;20029;-47
2023/05/09 10:28:34;;;;;;;11.05;6.53;;;18.70;74.30;;;;;;10363243;28;20037;-49
2023/05/09 10:33:49;;;;;;;8.38;7.07;;;18.80;74.40;;;;;;10369385;28;20049;-52
2023/05/09 10:38:53;;;;;;;8.77;6.38;;;18.70;74.20;;;;;;10369738;28;20688;-49
2023/05/09 10:43:58;;;;;;;8.18;6.18;;;18.70;74.40;;;;;;10365350;28;20018;-49
2023/05/09 10:49:00;;;;;;;9.10;5.85;;;18.70;74.20;;;;;;10361127;28;20022;-48
2023/05/09 10:54:11;;;;;;;8.32;6.13;;;18.70;74.20;;;;;;10366681;28;20523;-48
2023/05/09 10:59:40;;;;;;;8.07;5.43;;;18.70;74.20;;;;;;10368944;28;20400;-48
2023/05/09 11:04:42;;;;;;;6.80;5.40;;;18.70;74.00;;;;;;10366871;28;20049;-48
2023/05/09 11:09:43;;;;;;;8.60;6.30;;;18.60;74.50;;;;;;10367848;28;20062;-50
2023/05/09 11:14:46;;;;;;;7.68;6.38;;;18.60;73.80;;;;;;10368918;28;20470;-47
2023/05/09 11:19:46;;;;;;;9.00;6.03;;;18.60;73.90;;;;;;10368957;28;20026;-51
2023/05/09 11:25:00;;;;;;;9.40;5.90;;;18.60;74.00;;;;;;10366275;28;20417;-52
2023/05/09 11:30:08;;;;;;;8.55;5.18;;;18.70;74.00;;;;;;10368297;28;20030;-52
2023/05/09 11:35:18;;;;;;;6.13;5.07;;;18.70;74.00;;;;;;10368299;28;20084;-53
2023/05/09 11:40:21;;;;;;;9.50;5.15;;;18.70;73.90;;;;;;10366923;28;20033;-47
2023/05/09 11:45:25;;;;;;;8.68;5.15;;;18.70;73.70;;;;;;10368013;28;20018;-48
2023/05/09 11:50:26;;;;;;;7.85;5.18;;;18.80;73.80;;;;;;10366931;28;20038;-48
2023/05/09 11:55:28;;;;;;;10.13;5.65;;;18.80;73.90;;;;;;10348991;28;20068;-49
2023/05/09 12:00:30;;;;;;;8.02;4.63;;;18.80;74.10;;;;;;10367981;28;20033;-49
2023/05/09 12:05:31;;;;;;;8.55;4.38;;;18.70;74.20;;;;;;10365876;28;20042;-50
2023/05/09 12:10:37;;;;;;;7.30;4.35;;;18.70;74.30;;;;;;10367155;28;20069;-51
2023/05/09 12:15:38;;;;;;;6.10;4.30;;;18.70;74.20;;;;;;10367383;28;20021;-48
2023/05/09 12:20:51;;;;;;;6.35;4.40;;;18.70;74.20;;;;;;10366818;28;20034;-51
2023/05/09 12:25:56;;;;;;;5.45;4.85;;;18.60;74.60;;;;;;10365419;28;20026;-49
2023/05/09 12:30:57;;;;;;;6.45;3.70;;;18.70;75.40;;;;;;10373594;28;20056;-46
2023/05/09 12:36:10;;;;;;;6.95;3.90;;;18.70;75.10;;;;;;10370080;28;20041;-45
2023/05/09 12:41:10;;;;;;;6.90;3.95;;;18.70;74.90;;;;;;10366017;28;20034;-45
2023/05/09 12:46:11;;;;;;;25.83;5.90;;;18.70;74.80;;;;;;10365768;28;20089;-48
2023/05/09 12:51:20;;;;;;;14.55;5.03;;;18.60;75.20;;;;;;10359816;28;20021;-46
2023/05/09 12:56:22;;;;;;;17.65;5.68;;;18.60;75.00;;;;;;10363523;28;20512;-48
2023/05/09 13:01:27;;;;;;;19.83;5.75;;;18.80;74.60;;;;;;10365347;28;20040;-47
2023/05/09 13:06:28;;;;;;;8.73;4.55;;;18.70;74.80;;;;;;10365133;28;20373;-47
2023/05/09 13:11:29;;;;;;;8.65;4.20;;;18.90;74.50;;;;;;10364961;28;20030;-48
2023/05/09 13:16:30;;;;;;;11.50;3.70;;;18.80;74.30;;;;;;10365297;28;20657;-49
2023/05/09 13:21:32;;;;;;;20.85;5.03;;;18.80;74.70;;;;;;10364706;28;20042;-48
2023/05/09 13:26:33;;;;;;;21.52;5.82;;;18.70;75.10;;;;;;10364711;28;20037;-47
2023/05/09 13:31:33;;;;;;;29.70;5.75;;;18.80;75.40;;;;;;10376216;28;20023;-50
2023/05/09 13:36:34;;;;;;;28.02;6.22;;;18.80;75.40;;;;;;10364830;28;20547;-48
2023/05/09 13:41:35;;;;;;;48.88;7.45;;;18.80;75.50;;;;;;10364172;28;20639;-50
2023/05/09 13:46:36;;;;;;;27.90;7.35;;;18.80;75.50;;;;;;10363610;28;20112;-50
2023/05/09 13:51:37;;;;;;;40.78;7.93;;;19.20;74.10;;;;;;10362782;28;20033;-51
2023/05/09 13:56:38;;;;;;;46.40;9.68;;;19.10;75.20;;;;;;10364625;28;20104;-47
2023/05/09 14:01:39;;;;;;;15.90;5.55;;;18.90;75.70;;;;;;10362402;28;20038;-51
2023/05/09 14:06:46;;;;;;;33.97;6.85;;;18.80;75.90;;;;;;10364300;28;20037;-46
2023/05/09 14:11:50;;;;;;;18.35;5.93;;;18.80;76.10;;;;;;10364058;28;20049;-47
2023/05/09 14:16:51;;;;;;;25.25;6.05;;;18.80;76.00;;;;;;10362261;28;20101;-48
2023/05/09 14:21:52;;;;;;;29.45;5.82;;;18.70;75.80;;;;;;10361479;28;20038;-49
2023/05/09 14:26:52;;;;;;;22.77;5.57;;;18.80;76.50;;;;;;10349973;28;20041;-47
2023/05/09 14:31:53;;;;;;;18.02;5.72;;;18.90;76.10;;;;;;10359517;28;20046;-47
2023/05/09 14:36:54;;;;;;;19.88;4.43;;;19.20;75.10;;;;;;10359671;28;20018;-48
2023/05/09 14:41:55;;;;;;;22.17;5.72;;;18.90;75.60;;;;;;10362507;28;20498;-47
2023/05/09 14:46:55;;;;;;;17.65;5.53;;;18.90;76.20;;;;;;10362196;28;20026;-46
2023/05/09 14:51:56;;;;;;;15.85;4.70;;;18.90;76.40;;;;;;10361049;28;20117;-45
2023/05/09 14:56:58;;;;;;;15.95;4.68;;;18.90;76.80;;;;;;10363815;28;20113;-46
2023/05/09 15:01:58;;;;;;;22.55;4.65;;;18.90;76.90;;;;;;10369716;28;20030;-46
2023/05/09 15:06:59;;;;;;;14.27;4.55;;;19.00;76.40;;;;;;10369358;28;20644;-45
2023/05/09 15:12:00;;;;;;;17.65;5.20;;;19.00;76.90;;;;;;10368666;28;20052;-46
2023/05/09 15:17:02;;;;;;;18.17;4.97;;;18.90;77.10;;;;;;10365329;28;20079;-46
2023/05/09 15:22:04;;;;;;;14.70;4.97;;;18.90;76.90;;;;;;10368251;28;20030;-52
2023/05/09 15:27:05;;;;;;;13.07;3.60;;;18.80;77.60;;;;;;10368222;28;20026;-47
2023/05/09 15:32:06;;;;;;;22.42;5.38;;;18.80;77.30;;;;;;10369111;28;20026;-45
2023/05/09 15:37:06;;;;;;;17.25;3.97;;;18.70;77.20;;;;;;10368308;28;20108;-51
2023/05/09 15:42:07;;;;;;;18.08;4.20;;;18.70;77.00;;;;;;10357342;28;20129;-46
2023/05/09 15:47:09;;;;;;;9.65;3.50;;;18.70;77.40;;;;;;10358310;28;20038;-46
2023/05/09 15:52:10;;;;;;;11.80;3.80;;;18.70;77.30;;;;;;10368634;28;20038;-46
2023/05/09 15:57:12;;;;;;;11.70;3.42;;;18.70;77.20;;;;;;10368851;28;20084;-47
2023/05/09 16:02:13;;;;;;;13.52;4.63;;;18.70;76.90;;;;;;10390665;28;20484;-46
2023/05/09 16:07:13;;;;;;;8.60;4.07;;;18.80;77.30;;;;;;10376212;28;20043;-47
2023/05/09 16:12:14;;;;;;;16.13;5.05;;;18.80;78.00;;;;;;10365291;28;20104;-44
2023/05/09 16:17:15;;;;;;;9.48;4.38;;;19.00;78.00;;;;;;10360091;28;20029;-45
2023/05/09 16:22:16;;;;;;;11.70;3.10;;;19.00;77.70;;;;;;10366892;28;20465;-46
2023/05/09 16:27:17;;;;;;;12.30;3.42;;;19.10;77.80;;;;;;10367000;28;20014;-46
2023/05/09 16:32:17;;;;;;;15.75;4.03;;;19.10;77.20;;;;;;10367299;28;20032;-45
2023/05/09 16:37:18;;;;;;;20.40;3.63;;;19.00;77.20;;;;;;10365129;28;20117;-46
2023/05/09 16:42:18;;;;;;;7.35;4.07;;;18.90;77.30;;;;;;10366192;28;20121;-47
2023/05/09 16:47:19;;;;;;;11.43;3.25;;;18.90;77.20;;;;;;10369197;28;20565;-46
2023/05/09 16:52:21;;;;;;;18.08;3.92;;;18.90;77.30;;;;;;10367438;28;20064;-48
2023/05/09 16:57:22;;;;;;;13.98;4.00;;;19.00;77.40;;;;;;10365424;28;20393;-50
2023/05/09 17:02:23;;;;;;;18.55;4.75;;;19.10;76.90;;;;;;10364832;28;20129;-46
2023/05/09 17:07:23;;;;;;;29.20;5.40;;;19.10;77.70;;;;;;10365570;28;20518;-45
2023/05/09 17:12:26;;;;;;;15.45;4.00;;;19.00;77.20;;;;;;10364737;28;20112;-46
2023/05/09 17:17:28;;;;;;;21.30;5.10;;;19.00;78.00;;;;;;10364179;28;20030;-47
2023/05/09 17:22:29;;;;;;;13.70;4.45;;;19.10;77.80;;;;;;10364179;28;20045;-49
2023/05/09 17:27:29;;;;;;;27.02;5.28;;;19.00;77.90;;;;;;10363461;28;20014;-46
2023/05/09 17:32:30;;;;;;;16.77;4.53;;;19.00;78.00;;;;;;10367852;28;20026;-47
2023/05/09 17:37:31;;;;;;;11.07;4.10;;;18.90;77.90;;;;;;10363802;28;20072;-50
2023/05/09 17:42:31;;;;;;;14.50;4.22;;;18.90;77.60;;;;;;10364047;28;20803;-48
2023/05/09 17:47:32;;;;;;;13.10;3.78;;;18.80;77.30;;;;;;10359972;28;20109;-50
2023/05/09 17:52:33;;;;;;;12.57;4.60;;;18.80;77.40;;;;;;10353635;28;20038;-51
2023/05/09 17:57:34;;;;;;;17.38;4.50;;;18.80;77.20;;;;;;10363651;28;20030;-51
2023/05/09 18:02:34;;;;;;;13.77;3.80;;;18.80;77.30;;;;;;10390036;28;20030;-48
2023/05/09 18:07:35;;;;;;;12.32;3.85;;;18.80;77.40;;;;;;10370052;28;20152;-49
2023/05/09 18:12:36;;;;;;;16.77;5.88;;;18.80;77.40;;;;;;10371093;28;20600;-56
2023/05/09 18:17:37;;;;;;;10.60;3.70;;;18.80;77.20;;;;;;10367474;28;20099;-47
2023/05/09 18:22:37;;;;;;;9.55;3.25;;;18.80;77.70;;;;;;10379477;28;20549;-46
2023/05/09 18:27:38;;;;;;;11.00;3.58;;;18.90;77.20;;;;;;10383605;28;20104;-46
2023/05/09 18:32:39;;;;;;;11.75;3.65;;;18.90;77.10;;;;;;10376840;28;20064;-47
2023/05/09 18:37:40;;;;;;;12.20;3.67;;;18.90;76.90;;;;;;10376928;28;20104;-48
2023/05/09 18:42:41;;;;;;;16.10;3.38;;;18.80;77.00;;;;;;10371568;28;20064;-46
2023/05/09 18:47:42;;;;;;;12.65;2.95;;;18.80;77.10;;;;;;10367127;28;20036;-47
2023/05/09 18:52:44;;;;;;;12.93;3.35;;;18.80;77.10;;;;;;10372289;28;20763;-47
2023/05/09 18:57:45;;;;;;;10.75;2.70;;;18.80;77.10;;;;;;10389514;28;20018;-47
2023/05/09 19:02:46;;;;;;;8.05;2.83;;;18.80;77.10;;;;;;10396035;28;20022;-49
2023/05/09 19:07:46;;;;;;;10.45;3.28;;;18.80;77.10;;;;;;10394952;28;20101;-48
2023/05/09 19:12:47;;;;;;;6.88;2.53;;;18.80;77.10;;;;;;10382377;28;20120;-50
2023/05/09 19:17:48;;;;;;;9.20;2.70;;;18.70;77.10;;;;;;10373706;28;20021;-52
2023/05/09 19:22:50;;;;;;;8.48;2.20;;;18.80;77.00;;;;;;10367759;28;20026;-48
2023/05/09 19:27:51;;;;;;;7.68;2.85;;;18.70;77.00;;;;;;10366520;28;20026;-48
2023/05/09 19:32:52;;;;;;;5.28;2.72;;;18.70;77.00;;;;;;10369691;28;20510;-49
2023/05/09 19:37:53;;;;;;;3.65;2.05;;;18.60;77.00;;;;;;10362941;28;20025;-51
2023/05/09 19:42:53;;;;;;;8.57;2.55;;;18.60;76.80;;;;;;10367434;28;20026;-48
2023/05/09 19:47:54;;;;;;;5.07;2.60;;;18.60;76.60;;;;;;10364822;28;20021;-46
2023/05/09 19:52:55;;;;;;;4.00;1.65;;;18.60;76.60;;;;;;10364211;28;20018;-51
2023/05/09 19:57:56;;;;;;;2.47;1.30;;;18.60;76.50;;;;;;10364555;28;20032;-47
2023/05/09 20:02:57;;;;;;;4.45;1.80;;;18.60;76.40;;;;;;10363523;28;20392;-46
2023/05/09 20:07:57;;;;;;;4.28;2.58;;;18.50;76.30;;;;;;10367383;28;20121;-51
2023/05/09 20:12:59;;;;;;;3.33;1.60;;;18.60;76.00;;;;;;10367797;28;20014;-49
2023/05/09 20:18:02;;;;;;;5.28;1.77;;;18.50;75.90;;;;;;10365563;28;20553;-46
2023/05/09 20:23:03;;;;;;;3.70;2.17;;;18.50;76.00;;;;;;10356269;28;20050;-46
2023/05/09 20:28:03;;;;;;;3.83;2.33;;;18.50;76.10;;;;;;10364174;28;20030;-48
2023/05/09 20:33:04;;;;;;;2.92;1.63;;;18.50;76.00;;;;;;10378663;28;20037;-46
2023/05/09 20:38:05;;;;;;;4.07;1.52;;;18.50;76.00;;;;;;10366175;28;20022;-47
2023/05/09 20:43:06;;;;;;;2.30;1.42;;;18.50;76.10;;;;;;10381571;28;20045;-47
2023/05/09 20:48:06;;;;;;;2.40;1.67;;;18.50;76.10;;;;;;10364612;28;20014;-47
2023/05/09 20:53:07;;;;;;;3.97;2.00;;;18.40;76.10;;;;;;10365582;28;20076;-50
2023/05/09 20:58:08;;;;;;;3.65;2.00;;;18.40;76.10;;;;;;10364299;28;20029;-48
2023/05/09 21:03:09;;;;;;;3.00;1.90;;;18.40;76.10;;;;;;10363819;28;20046;-48
2023/05/09 21:08:09;;;;;;;4.07;1.80;;;18.40;76.10;;;;;;10365593;28;20022;-49
2023/05/09 21:13:10;;;;;;;3.78;1.58;;;18.40;76.10;;;;;;10365257;28;20025;-49
2023/05/09 21:18:11;;;;;;;5.00;2.53;;;18.40;76.10;;;;;;10365144;28;20018;-48
2023/05/09 21:23:13;;;;;;;4.10;2.30;;;18.40;76.00;;;;;;10353126;28;20088;-48
2023/05/09 21:28:14;;;;;;;3.78;2.20;;;18.40;76.00;;;;;;10362950;28;20026;-46
2023/05/09 21:33:15;;;;;;;3.83;1.95;;;18.30;75.90;;;;;;10375975;28;20451;-49
2023/05/09 21:38:15;;;;;;;5.22;2.45;;;18.40;76.00;;;;;;10365019;28;20083;-48
2023/05/09 21:43:17;;;;;;;3.33;2.35;;;18.40;75.90;;;;;;10363924;28;20119;-48
2023/05/09 21:48:17;;;;;;;3.83;2.20;;;18.30;75.80;;;;;;10364401;28;20037;-48
2023/05/09 21:53:18;;;;;;;3.10;2.00;;;18.40;75.80;;;;;;10363613;28;20496;-47
2023/05/09 21:58:19;;;;;;;3.78;1.95;;;18.30;75.70;;;;;;10364079;28;20080;-48
2023/05/09 22:03:19;;;;;;;3.47;2.17;;;18.30;75.70;;;;;;10363777;28;20033;-48
2023/05/09 22:08:21;;;;;;;3.20;2.25;;;18.30;75.70;;;;;;10369110;28;20061;-48
2023/05/09 22:13:22;;;;;;;3.92;2.40;;;18.30;75.70;;;;;;10372272;28;20022;-48
2023/05/09 22:18:23;;;;;;;3.35;2.15;;;18.30;75.60;;;;;;10371760;28;20049;-49
2023/05/09 22:23:23;;;;;;;2.80;1.90;;;18.30;75.60;;;;;;10371218;28;20062;-46
2023/05/09 22:28:24;;;;;;;4.05;2.30;;;18.30;75.60;;;;;;10369957;28;20022;-48
2023/05/09 22:33:25;;;;;;;3.45;2.17;;;18.30;75.60;;;;;;10382754;28;20372;-47
2023/05/09 22:38:25;;;;;;;4.47;2.88;;;18.30;75.50;;;;;;10371110;28;20026;-47
2023/05/09 22:43:26;;;;;;;3.15;2.08;;;18.30;75.70;;;;;;10346871;28;20057;-52
2023/05/09 22:48:27;;;;;;;2.90;2.30;;;18.30;75.40;;;;;;10371037;28;20469;-46
2023/05/09 22:53:28;;;;;;;3.42;2.28;;;18.30;75.40;;;;;;10370420;28;20117;-47
2023/05/09 22:58:28;;;;;;;4.65;2.47;;;18.20;75.30;;;;;;10370196;28;20057;-48
2023/05/09 23:03:29;;;;;;;2.85;2.42;;;18.30;75.40;;;;;;10368378;28;20054;-48
2023/05/09 23:08:30;;;;;;;4.10;2.50;;;18.20;75.30;;;;;;10368852;28;20125;-47
2023/05/09 23:13:31;;;;;;;3.50;2.10;;;18.30;75.30;;;;;;10369802;28;20410;-48
2023/05/09 23:18:32;;;;;;;3.15;1.88;;;18.20;75.20;;;;;;10369314;28;20033;-46
2023/05/09 23:23:33;;;;;;;4.75;3.17;;;18.20;75.20;;;;;;10356249;28;20038;-49
2023/05/09 23:28:33;;;;;;;3.40;2.45;;;18.20;75.20;;;;;;10367652;28;20029;-46
2023/05/09 23:33:34;;;;;;;5.05;2.55;;;18.20;75.20;;;;;;10379856;28;20049;-47
2023/05/09 23:38:35;;;;;;;5.28;2.83;;;18.20;75.10;;;;;;10368735;28;20125;-47
2023/05/09 23:43:36;;;;;;;3.72;2.47;;;18.20;75.10;;;;;;10368594;28;20114;-46
2023/05/09 23:48:37;;;;;;;5.72;2.83;;;18.20;75.10;;;;;;10368432;28;20522;-47
2023/05/09 23:53:38;;;;;;;4.13;2.72;;;18.20;75.70;;;;;;10368290;28;20156;-47
2023/05/09 23:58:39;;;;;;;4.25;3.00;;;18.20;75.00;;;;;;10367832;28;20026;-48
